Time;durP1;ratioP1;P1;durP2;ratioP2;P2;SDS_P1;SDS_P2;PMS_P1;PMS_P2;Temp;Humidity;BMP_temperature;BMP_pressure;BME280_temperature;BME280_humidity;BME280_pressure;Samples;Min_cycle;Max_cycle;Signal;HPM_P1;HPM_P2
2022/12/11 00:00:39;;;;;;;145.10;32.08;;;0.10;99.90;;;;;;5093198;28;20114;-87
2022/12/11 00:03:25;;;;;;;143.63;34.10;;;0.00;99.90;;;;;;5080596;28;20114;-82
2022/12/11 00:06:14;;;;;;;120.57;32.38;;;0.10;99.90;;;;;;5073845;28;20047;-81
2022/12/11 00:09:00;;;;;;;142.48;34.38;;;0.00;99.90;;;;;;5074025;28;20052;-79
2022/12/11 00:11:47;;;;;;;132.82;32.47;;;0.10;99.90;;;;;;5075806;28;20491;-86
2022/12/11 00:14:33;;;;;;;154.05;32.35;;;0.10;99.90;;;;;;5094982;28;20090;-78
2022/12/11 00:17:20;;;;;;;134.05;32.28;;;0.10;99.90;;;;;;5075796;28;20121;-87
2022/12/11 00:20:07;;;;;;;145.90;35.08;;;0.10;99.90;;;;;;5068789;28;20052;-80
2022/12/11 00:22:53;;;;;;;159.45;36.03;;;0.10;99.90;;;;;;5092486;28;20071;-82
2022/12/11 00:25:46;;;;;;;138.93;34.35;;;0.10;99.90;;;;;;5093033;28;20388;-85
2022/12/11 00:28:32;;;;;;;155.02;32.03;;;0.10;99.90;;;;;;5094704;28;20055;-84
2022/12/11 00:31:19;;;;;;;122.35;31.00;;;0.20;99.90;;;;;;5095092;28;20056;-87
2022/12/11 00:34:05;;;;;;;144.27;34.90;;;0.20;99.90;;;;;;5077619;28;20056;-85
2022/12/11 00:36:52;;;;;;;157.70;34.72;;;0.20;99.90;;;;;;5095314;28;20139;-81
2022/12/11 00:39:38;;;;;;;134.35;33.65;;;0.20;99.90;;;;;;5077181;28;20051;-81
2022/12/11 00:42:24;;;;;;;122.63;33.30;;;0.20;99.90;;;;;;5090790;28;20415;-86
2022/12/11 00:45:11;;;;;;;138.23;36.60;;;0.20;99.90;;;;;;5090700;28;20052;-87
2022/12/11 00:47:57;;;;;;;130.00;33.92;;;0.20;99.90;;;;;;5092442;28;20056;-83
2022/12/11 00:50:43;;;;;;;157.88;33.83;;;0.20;99.90;;;;;;5072960;28;20051;-80
2022/12/11 00:53:29;;;;;;;156.13;34.85;;;0.20;99.90;;;;;;5063780;28;20143;-83
2022/12/11 00:56:19;;;;;;;141.18;35.90;;;0.20;99.90;;;;;;5059345;28;20075;-84
2022/12/11 00:59:05;;;;;;;154.65;36.63;;;0.20;99.90;;;;;;5090091;28;20067;-78
2022/12/11 01:01:51;;;;;;;153.05;36.05;;;0.20;99.90;;;;;;5073024;28;20389;-80
2022/12/11 01:04:37;;;;;;;138.13;33.50;;;0.30;99.90;;;;;;5074887;28;20050;-81
2022/12/11 01:07:23;;;;;;;175.07;36.75;;;0.30;99.90;;;;;;5091038;28;20044;-86
2022/12/11 01:10:24;;;;;;;159.43;34.50;;;0.30;99.90;;;;;;5094732;28;20464;-80
2022/12/11 01:13:10;;;;;;;169.65;37.78;;;0.30;99.90;;;;;;5073052;28;20063;-81
2022/12/11 01:15:57;;;;;;;162.85;35.53;;;0.30;99.90;;;;;;5089836;28;20060;-85
2022/12/11 01:18:43;;;;;;;180.40;37.08;;;0.30;99.90;;;;;;5090107;28;20178;-86
2022/12/11 01:21:29;;;;;;;157.50;36.78;;;0.40;99.90;;;;;;5072714;28;20794;-85
2022/12/11 01:24:15;;;;;;;170.38;38.88;;;0.30;99.90;;;;;;5095942;28;20090;-77
2022/12/11 01:27:02;;;;;;;170.70;38.70;;;0.40;99.90;;;;;;5090235;28;20068;-80
2022/12/11 01:29:48;;;;;;;158.15;37.20;;;0.40;99.90;;;;;;5072050;28;20109;-81
2022/12/11 01:32:35;;;;;;;147.48;37.15;;;0.40;99.90;;;;;;5071916;28;20480;-87
2022/12/11 01:35:21;;;;;;;160.82;35.88;;;0.40;99.90;;;;;;5090529;28;20052;-80
2022/12/11 01:38:09;;;;;;;159.98;40.13;;;0.40;99.90;;;;;;5092283;28;20055;-76
2022/12/11 01:40:55;;;;;;;154.13;36.25;;;0.40;99.90;;;;;;5095019;28;20051;-86
2022/12/11 01:44:04;;;;;;;139.88;34.33;;;0.40;99.90;;;;;;5071968;28;20450;-84
2022/12/11 01:46:50;;;;;;;148.85;34.17;;;0.50;99.90;;;;;;5094086;28;20087;-86
2022/12/11 01:49:38;;;;;;;167.90;37.15;;;0.50;99.90;;;;;;5091363;28;20047;-80
2022/12/11 01:52:25;;;;;;;161.00;36.83;;;0.50;99.90;;;;;;5071478;28;20143;-83
2022/12/11 01:55:11;;;;;;;154.48;34.67;;;0.50;99.90;;;;;;5093698;28;20419;-86
2022/12/11 01:57:57;;;;;;;167.07;36.72;;;0.50;99.90;;;;;;5071527;28;20052;-78
2022/12/11 02:00:43;;;;;;;134.43;33.88;;;0.50;99.90;;;;;;5071782;28;20058;-85
2022/12/11 02:03:30;;;;;;;148.00;36.83;;;0.50;99.90;;;;;;5072211;28;20055;-82
2022/12/11 02:06:38;;;;;;;148.55;35.85;;;0.50;99.90;;;;;;5071353;28;20060;-82
2022/12/11 02:09:29;;;;;;;138.88;34.90;;;0.50;99.90;;;;;;5090534;28;20121;-88
2022/12/11 02:12:46;;;;;;;132.48;35.60;;;0.50;99.90;;;;;;5076732;28;20055;-86
2022/12/11 02:15:41;;;;;;;141.05;34.50;;;0.60;99.90;;;;;;5072406;28;20068;-87
2022/12/11 02:18:33;;;;;;;145.20;37.28;;;0.50;99.90;;;;;;5095136;28;20045;-78
2022/12/11 02:21:24;;;;;;;119.65;30.48;;;0.50;99.90;;;;;;5071874;28;20047;-83
2022/12/11 02:24:10;;;;;;;132.23;33.20;;;0.50;99.90;;;;;;5090056;28;20500;-78
2022/12/11 02:26:56;;;;;;;133.30;34.35;;;0.50;99.90;;;;;;5090384;28;20048;-85
2022/12/11 02:30:03;;;;;;;137.73;35.60;;;0.50;99.90;;;;;;5076851;28;20048;-86
2022/12/11 02:32:49;;;;;;;127.15;32.58;;;0.60;99.90;;;;;;5074771;28;20055;-77
2022/12/11 02:35:44;;;;;;;139.00;34.10;;;0.60;99.90;;;;;;5094338;28;20056;-79
2022/12/11 02:38:35;;;;;;;118.23;31.30;;;0.60;99.90;;;;;;5080742;28;20048;-77
2022/12/11 02:41:23;;;;;;;117.07;33.78;;;0.60;99.90;;;;;;5093920;28;20290;-82
2022/12/11 02:44:11;;;;;;;106.32;28.80;;;0.60;99.90;;;;;;5074782;28;20051;-82
2022/12/11 02:46:58;;;;;;;125.50;32.17;;;0.60;99.90;;;;;;5081051;28;20052;-80
2022/12/11 02:49:48;;;;;;;122.10;32.38;;;0.60;99.90;;;;;;5075248;28;20136;-82
2022/12/11 02:52:36;;;;;;;123.10;31.52;;;0.60;99.90;;;;;;5094396;28;20048;-77
2022/12/11 02:55:24;;;;;;;108.95;30.50;;;0.60;99.90;;;;;;5093577;28;20056;-77
2022/12/11 02:58:15;;;;;;;112.20;29.08;;;0.60;99.90;;;;;;5073620;28;20085;-79
2022/12/11 03:01:01;;;;;;;112.35;29.92;;;0.60;99.90;;;;;;5076270;28;20129;-80
2022/12/11 03:03:47;;;;;;;114.60;30.45;;;0.60;99.90;;;;;;5096606;28;20121;-79
2022/12/11 03:06:37;;;;;;;119.13;29.67;;;0.60;99.90;;;;;;5075825;28;20052;-83
2022/12/11 03:09:23;;;;;;;108.80;31.70;;;0.60;99.90;;;;;;5076180;28;20087;-81
2022/12/11 03:12:12;;;;;;;110.32;30.23;;;0.60;99.90;;;;;;5093430;28;20518;-83
2022/12/11 03:15:00;;;;;;;113.60;31.77;;;0.60;99.90;;;;;;5093441;28;20442;-84
2022/12/11 03:18:10;;;;;;;114.47;31.30;;;0.60;99.90;;;;;;5079910;28;20063;-84
2022/12/11 03:21:22;;;;;;;126.03;30.13;;;0.60;99.90;;;;;;5100513;28;20056;-82
2022/12/11 03:24:22;;;;;;;131.80;32.72;;;0.60;99.90;;;;;;5092969;28;20060;-77
2022/12/11 03:27:33;;;;;;;119.50;31.80;;;0.70;99.90;;;;;;5078959;28;20048;-79
2022/12/11 03:30:21;;;;;;;126.55;33.47;;;0.70;99.90;;;;;;5097440;28;20080;-87
2022/12/11 03:33:14;;;;;;;116.30;31.13;;;0.70;99.90;;;;;;5082654;28;20097;-78
2022/12/11 03:36:16;;;;;;;126.00;32.70;;;0.60;99.90;;;;;;5077495;28;20059;-84
2022/12/11 03:39:17;;;;;;;111.32;33.22;;;0.70;99.90;;;;;;5081394;28;20393;-77
2022/12/11 03:42:08;;;;;;;142.15;36.33;;;0.70;99.90;;;;;;5075759;28;20079;-77
2022/12/11 03:44:57;;;;;;;131.57;33.45;;;0.70;99.90;;;;;;5099286;28;20090;-78
2022/12/11 03:47:46;;;;;;;121.35;34.00;;;0.70;99.90;;;;;;5102095;28;20074;-83
2022/12/11 03:50:34;;;;;;;136.63;34.67;;;0.70;99.90;;;;;;5085439;28;20048;-83
2022/12/11 03:53:21;;;;;;;117.88;32.28;;;0.70;99.90;;;;;;5065962;28;20052;-85
2022/12/11 03:56:09;;;;;;;150.60;36.97;;;0.70;99.90;;;;;;5096290;28;20128;-82
2022/12/11 03:58:55;;;;;;;123.53;34.85;;;0.70;99.90;;;;;;5074247;28;20052;-82
2022/12/11 04:01:41;;;;;;;141.05;34.38;;;0.70;99.90;;;;;;5061140;28;20422;-83
2022/12/11 04:04:28;;;;;;;136.38;36.45;;;0.70;99.90;;;;;;5094054;28;20136;-79
2022/12/11 04:07:14;;;;;;;137.25;37.22;;;0.70;99.90;;;;;;5073203;28;20063;-83
2022/12/11 04:10:00;;;;;;;140.32;33.97;;;0.70;99.90;;;;;;5097306;28;20054;-79
2022/12/11 04:12:46;;;;;;;151.43;36.60;;;0.70;99.90;;;;;;5090940;28;20048;-85
2022/12/11 04:15:33;;;;;;;148.23;36.00;;;0.70;99.90;;;;;;5073669;28;20090;-83
2022/12/11 04:24:29;;;;;;;138.23;36.15;;;0.80;99.90;;;;;;5093120;28;20048;-86
2022/12/11 04:30:24;;;;;;;134.43;34.80;;;0.80;99.90;;;;;;5072782;28;20091;-84
2022/12/11 04:33:10;;;;;;;132.50;34.30;;;0.80;99.90;;;;;;5072966;28;20052;-86
2022/12/11 04:35:58;;;;;;;150.88;37.38;;;0.80;99.90;;;;;;5093577;28;20121;-85
2022/12/11 04:38:44;;;;;;;131.00;34.80;;;0.80;99.90;;;;;;5092018;28;20078;-86
2022/12/11 04:41:30;;;;;;;139.35;36.33;;;0.80;99.90;;;;;;5073912;28;20075;-86
2022/12/11 04:44:16;;;;;;;138.57;37.53;;;0.80;99.90;;;;;;5077676;28;20097;-78
2022/12/11 04:47:03;;;;;;;135.93;34.58;;;0.80;99.90;;;;;;5086719;28;20040;-85
2022/12/11 04:49:49;;;;;;;129.90;34.55;;;0.80;99.90;;;;;;5073688;28;20048;-85
2022/12/11 04:52:35;;;;;;;155.07;35.42;;;0.80;99.90;;;;;;5089553;28;20052;-81
2022/12/11 04:55:22;;;;;;;146.57;35.92;;;0.80;99.90;;;;;;5091735;28;20139;-86
2022/12/11 04:58:08;;;;;;;140.57;35.15;;;0.80;99.90;;;;;;5072152;28;20135;-87
2022/12/11 05:00:55;;;;;;;129.35;33.83;;;0.80;99.90;;;;;;5094190;28;20486;-84
2022/12/11 05:03:42;;;;;;;137.82;35.22;;;0.80;99.90;;;;;;5072859;28;20059;-85
2022/12/11 05:06:28;;;;;;;144.60;34.60;;;0.80;99.90;;;;;;5090277;28;20517;-84
2022/12/11 05:09:14;;;;;;;143.60;34.38;;;0.80;99.90;;;;;;5072528;28;20048;-85
2022/12/11 05:12:00;;;;;;;136.25;35.22;;;0.80;99.90;;;;;;5072696;28;20139;-79
2022/12/11 05:14:50;;;;;;;135.07;33.85;;;0.80;99.90;;;;;;5072038;28;20503;-86
2022/12/11 05:17:36;;;;;;;119.70;30.90;;;0.80;99.90;;;;;;5095962;28;20465;-85
2022/12/11 05:20:22;;;;;;;128.95;33.70;;;0.80;99.90;;;;;;5091112;28;20079;-84
2022/12/11 05:23:08;;;;;;;146.52;34.63;;;0.80;99.90;;;;;;5072722;28;20048;-85
2022/12/11 05:25:57;;;;;;;144.75;36.03;;;0.80;99.90;;;;;;5071895;28;20056;-80
2022/12/11 05:28:44;;;;;;;128.98;33.03;;;0.80;99.90;;;;;;5090851;28;20078;-83
2022/12/11 05:31:30;;;;;;;131.90;32.42;;;0.80;99.90;;;;;;5073812;28;20052;-82
2022/12/11 05:34:16;;;;;;;138.85;35.03;;;0.80;99.90;;;;;;5095591;28;20105;-81
2022/12/11 05:37:02;;;;;;;124.03;33.90;;;0.80;99.90;;;;;;5089991;28;20082;-78
2022/12/11 05:39:49;;;;;;;128.65;32.58;;;0.80;99.90;;;;;;5072467;28;20078;-84
2022/12/11 05:42:35;;;;;;;146.23;36.03;;;0.80;99.90;;;;;;5090773;28;20127;-86
2022/12/11 05:45:21;;;;;;;137.07;33.50;;;0.80;99.90;;;;;;5090366;28;20098;-86
2022/12/11 05:48:07;;;;;;;118.20;33.63;;;0.90;99.90;;;;;;5074648;28;20072;-77
2022/12/11 05:50:58;;;;;;;125.13;32.70;;;0.90;99.90;;;;;;5077424;28;20068;-80
2022/12/11 05:53:46;;;;;;;126.97;33.78;;;0.90;99.90;;;;;;5089606;28;20051;-80
2022/12/11 05:56:33;;;;;;;125.03;31.67;;;0.90;99.90;;;;;;5071702;28;20105;-78
2022/12/11 05:59:19;;;;;;;135.20;33.63;;;0.90;99.90;;;;;;5071916;28;20044;-86
2022/12/11 06:02:06;;;;;;;124.10;31.83;;;0.90;99.90;;;;;;5092383;28;20125;-78
2022/12/11 06:04:52;;;;;;;135.35;33.28;;;0.90;99.90;;;;;;5095520;28;20647;-77
2022/12/11 06:07:38;;;;;;;139.07;34.72;;;0.80;99.90;;;;;;5095649;28;20495;-78
2022/12/11 06:10:24;;;;;;;127.47;32.65;;;0.90;99.90;;;;;;5094573;28;20047;-85
2022/12/11 06:13:10;;;;;;;129.48;34.17;;;0.90;99.90;;;;;;5076244;28;20082;-85
2022/12/11 06:16:01;;;;;;;130.18;32.80;;;0.90;99.90;;;;;;5061728;28;20121;-86
2022/12/11 06:18:48;;;;;;;122.60;33.28;;;0.90;99.90;;;;;;5096714;28;20048;-81
2022/12/11 06:21:34;;;;;;;136.25;34.10;;;0.90;99.90;;;;;;5078764;28;20044;-83
2022/12/11 06:24:20;;;;;;;128.55;33.10;;;0.90;99.90;;;;;;5093706;28;20519;-84
2022/12/11 06:27:07;;;;;;;129.75;32.60;;;0.90;99.90;;;;;;5067308;28;20060;-83
2022/12/11 06:29:53;;;;;;;130.70;33.47;;;0.90;99.90;;;;;;5093813;28;20507;-86
2022/12/11 06:32:39;;;;;;;132.07;36.33;;;0.90;99.90;;;;;;5075464;28;20052;-85
2022/12/11 06:35:25;;;;;;;113.80;31.33;;;0.90;99.90;;;;;;5076062;28;20048;-78
2022/12/11 06:38:11;;;;;;;119.90;32.85;;;0.90;99.90;;;;;;5077662;28;20489;-79
2022/12/11 06:40:59;;;;;;;129.60;34.40;;;0.80;99.90;;;;;;5094013;28;20093;-80
2022/12/11 06:43:46;;;;;;;116.15;31.08;;;0.90;99.90;;;;;;5075900;28;20411;-81
2022/12/11 06:46:32;;;;;;;130.70;35.17;;;0.90;99.90;;;;;;5073975;28;20051;-82
2022/12/11 06:49:18;;;;;;;116.03;32.53;;;0.90;99.90;;;;;;5094454;28;20051;-85
2022/12/11 06:52:05;;;;;;;116.63;31.85;;;0.90;99.90;;;;;;5086642;28;20412;-82
2022/12/11 06:54:52;;;;;;;112.00;31.83;;;0.90;99.90;;;;;;5096345;28;20067;-80
2022/12/11 06:57:38;;;;;;;108.35;30.92;;;0.90;99.90;;;;;;5078164;28;20063;-85
2022/12/11 07:00:24;;;;;;;122.32;35.90;;;0.90;99.90;;;;;;5093261;28;20044;-84
2022/12/11 07:03:12;;;;;;;137.85;34.22;;;0.90;99.90;;;;;;5093746;28;20052;-87
2022/12/11 07:06:02;;;;;;;118.38;33.40;;;0.90;99.90;;;;;;5046573;28;20055;-83
2022/12/11 07:08:48;;;;;;;108.97;31.52;;;0.90;99.90;;;;;;5092667;28;20500;-79
2022/12/11 07:11:35;;;;;;;108.97;31.45;;;0.90;99.90;;;;;;5079958;28;20130;-87
2022/12/11 07:14:21;;;;;;;103.72;32.40;;;0.90;99.90;;;;;;5091723;28;20044;-79
2022/12/11 07:17:07;;;;;;;113.20;32.17;;;0.90;99.90;;;;;;5060907;28;20044;-85
2022/12/11 07:19:54;;;;;;;98.78;30.10;;;0.90;99.90;;;;;;5076593;28;20047;-81
2022/12/11 07:22:40;;;;;;;97.78;31.05;;;0.90;99.90;;;;;;5075023;28;20642;-87
2022/12/11 07:25:26;;;;;;;96.25;28.90;;;0.90;99.90;;;;;;5092983;28;20434;-83
2022/12/11 07:28:12;;;;;;;97.40;28.23;;;0.90;99.90;;;;;;5097370;28;20069;-77
2022/12/11 07:30:58;;;;;;;91.78;29.20;;;0.90;99.90;;;;;;5094255;28;20048;-83
2022/12/11 07:33:46;;;;;;;102.70;30.25;;;0.90;99.90;;;;;;5074604;28;20536;-87
2022/12/11 07:36:33;;;;;;;95.50;28.17;;;0.90;99.90;;;;;;5079996;28;20092;-77
2022/12/11 07:39:19;;;;;;;97.38;27.73;;;0.90;99.90;;;;;;5073462;28;20083;-80
2022/12/11 07:42:05;;;;;;;102.00;27.63;;;0.90;99.90;;;;;;5073097;28;20054;-82
2022/12/11 07:44:51;;;;;;;94.22;28.92;;;0.90;99.90;;;;;;5098886;28;20048;-79
2022/12/11 07:47:38;;;;;;;99.95;29.23;;;0.90;99.90;;;;;;5060633;28;20084;-85
2022/12/11 07:50:24;;;;;;;104.45;28.00;;;0.90;99.90;;;;;;5092962;28;20055;-85
2022/12/11 07:53:10;;;;;;;88.32;28.00;;;0.90;99.90;;;;;;5077001;28;20151;-84
2022/12/11 07:55:58;;;;;;;97.55;29.95;;;0.90;99.90;;;;;;5091771;28;20056;-83
2022/12/11 07:58:46;;;;;;;93.57;27.75;;;0.90;99.90;;;;;;5096709;28;20044;-85
2022/12/11 08:01:35;;;;;;;95.60;28.90;;;0.90;99.90;;;;;;5093588;28;20193;-86
2022/12/11 08:04:22;;;;;;;83.25;27.20;;;0.90;99.90;;;;;;5093309;28;20060;-85
2022/12/11 08:07:08;;;;;;;92.88;27.67;;;0.90;99.90;;;;;;5074395;28;20501;-87
2022/12/11 08:09:54;;;;;;;92.32;27.13;;;0.90;99.90;;;;;;5061709;28;20126;-78
2022/12/11 08:12:40;;;;;;;91.10;27.88;;;0.90;99.90;;;;;;5077024;28;20054;-77
2022/12/11 08:15:26;;;;;;;88.05;25.83;;;0.90;99.90;;;;;;5097541;28;20522;-77
2022/12/11 08:18:12;;;;;;;79.75;25.58;;;0.90;99.90;;;;;;5092377;28;20040;-78
2022/12/11 08:20:58;;;;;;;89.65;27.63;;;0.90;99.90;;;;;;5092097;28;20119;-87
2022/12/11 08:23:45;;;;;;;85.38;26.02;;;0.90;99.90;;;;;;5080488;28;20086;-79
2022/12/11 08:26:32;;;;;;;83.55;26.65;;;0.90;99.90;;;;;;5091652;28;20438;-79
2022/12/11 08:29:18;;;;;;;85.82;25.08;;;1.00;99.90;;;;;;5073551;28;20475;-85
2022/12/11 08:32:04;;;;;;;80.13;25.00;;;0.90;99.90;;;;;;5095778;28;20135;-80
2022/12/11 08:34:51;;;;;;;80.40;24.17;;;1.00;99.90;;;;;;5061912;28;20102;-78
2022/12/11 08:37:39;;;;;;;78.32;25.58;;;1.00;99.90;;;;;;5091166;28;20567;-83
2022/12/11 08:40:25;;;;;;;78.63;24.05;;;1.00;99.90;;;;;;5075738;28;20052;-81
2022/12/11 08:43:11;;;;;;;76.43;25.75;;;1.00;99.90;;;;;;5091521;28;20076;-80
2022/12/11 08:45:57;;;;;;;94.38;29.67;;;1.00;99.90;;;;;;5091104;28;20108;-81
2022/12/11 08:48:43;;;;;;;99.22;28.85;;;1.10;99.90;;;;;;5092569;28;20090;-78
2022/12/11 08:51:29;;;;;;;75.10;22.95;;;1.10;99.90;;;;;;5094917;28;20051;-87
2022/12/11 08:54:16;;;;;;;79.70;24.80;;;1.10;99.90;;;;;;5092429;28;20131;-86
2022/12/11 08:57:02;;;;;;;87.20;25.67;;;1.10;99.90;;;;;;5092750;28;20059;-78
2022/12/11 08:59:48;;;;;;;75.53;26.58;;;1.10;99.90;;;;;;5092018;28;20138;-81
2022/12/11 09:02:34;;;;;;;77.40;26.65;;;1.10;99.90;;;;;;5091270;28;20047;-81
2022/12/11 09:05:21;;;;;;;76.82;24.17;;;1.10;99.90;;;;;;5093544;28;20083;-83
2022/12/11 09:08:07;;;;;;;73.30;28.02;;;1.20;99.90;;;;;;5095384;28;20135;-87
2022/12/11 09:10:53;;;;;;;86.78;28.35;;;1.20;99.90;;;;;;5092199;28;20056;-84
2022/12/11 09:13:40;;;;;;;85.15;28.40;;;1.20;99.90;;;;;;5073533;28;20052;-77
2022/12/11 09:16:27;;;;;;;75.60;23.88;;;1.20;99.90;;;;;;5090172;28;20044;-82
2022/12/11 09:19:14;;;;;;;85.20;28.60;;;1.30;99.90;;;;;;5072469;28;20470;-84
2022/12/11 09:22:00;;;;;;;83.15;28.67;;;1.30;99.90;;;;;;5073580;28;20048;-84
2022/12/11 09:24:46;;;;;;;92.28;30.73;;;1.20;99.90;;;;;;5073763;28;20052;-81
2022/12/11 09:27:33;;;;;;;82.10;27.25;;;1.20;99.90;;;;;;5063571;28;20063;-77
2022/12/11 09:30:19;;;;;;;76.82;27.13;;;1.20;99.90;;;;;;5071573;28;20138;-79
2022/12/11 09:33:05;;;;;;;94.55;29.23;;;1.30;99.90;;;;;;5083097;28;20062;-81
2022/12/11 09:36:01;;;;;;;82.65;25.30;;;1.20;99.90;;;;;;5089855;28;20047;-77
2022/12/11 09:38:48;;;;;;;82.30;27.27;;;1.30;99.90;;;;;;5072348;28;20059;-85
2022/12/11 09:42:07;;;;;;;94.85;28.60;;;1.30;99.90;;;;;;5096636;28;20052;-80
2022/12/11 09:44:57;;;;;;;78.75;25.88;;;1.30;99.90;;;;;;5090155;28;20055;-78
2022/12/11 09:47:48;;;;;;;94.15;27.98;;;1.30;99.90;;;;;;5094417;28;20051;-80
2022/12/11 09:50:35;;;;;;;91.25;28.92;;;1.40;99.90;;;;;;5090784;28;20407;-83
2022/12/11 09:53:28;;;;;;;99.15;29.13;;;1.40;99.90;;;;;;5072956;28;20044;-87
2022/12/11 09:56:39;;;;;;;97.72;28.08;;;1.40;99.90;;;;;;5079204;28;20059;-81
2022/12/11 09:59:31;;;;;;;81.28;28.30;;;1.50;99.90;;;;;;5090951;28;20139;-78
2022/12/11 10:02:45;;;;;;;86.35;27.25;;;1.50;99.90;;;;;;5095240;28;20495;-82
2022/12/11 10:05:37;;;;;;;100.55;28.73;;;1.50;99.90;;;;;;5092702;28;20065;-79
2022/12/11 10:08:49;;;;;;;92.88;28.90;;;1.50;99.90;;;;;;5072130;28;20496;-86
2022/12/11 10:12:02;;;;;;;90.03;28.13;;;1.50;99.90;;;;;;5073487;28;20052;-82
2022/12/11 10:15:04;;;;;;;89.80;29.02;;;1.50;99.90;;;;;;5072424;28;20423;-79
2022/12/11 10:17:52;;;;;;;85.38;26.80;;;1.50;99.90;;;;;;5059433;28;20113;-77
2022/12/11 10:20:41;;;;;;;83.90;26.27;;;1.60;99.90;;;;;;5097695;28;20044;-80
2022/12/11 10:23:34;;;;;;;79.95;27.95;;;1.60;99.90;;;;;;5077306;28;20384;-84
2022/12/11 10:26:21;;;;;;;81.15;28.50;;;1.60;99.90;;;;;;5082677;28;20063;-85
2022/12/11 10:29:14;;;;;;;87.60;30.20;;;1.60;99.90;;;;;;5098888;28;20051;-77
2022/12/11 10:32:01;;;;;;;94.88;29.20;;;1.60;99.90;;;;;;5078440;28;20087;-80
2022/12/11 10:34:56;;;;;;;91.97;30.88;;;1.60;99.90;;;;;;5097508;28;20054;-78
2022/12/11 10:37:42;;;;;;;88.05;28.73;;;1.70;99.90;;;;;;5079322;28;20155;-77
2022/12/11 10:40:29;;;;;;;87.78;29.17;;;1.70;99.90;;;;;;5099922;28;20048;-86
2022/12/11 10:43:16;;;;;;;81.63;28.30;;;1.70;99.90;;;;;;5095019;28;20044;-86
2022/12/11 10:46:04;;;;;;;87.85;30.25;;;1.70;99.90;;;;;;5086170;28;20048;-78
2022/12/11 10:48:53;;;;;;;84.30;26.92;;;1.80;99.90;;;;;;5098240;28;20095;-81
2022/12/11 10:51:39;;;;;;;80.93;28.20;;;1.80;99.90;;;;;;5100598;28;20101;-79
2022/12/11 10:54:31;;;;;;;83.45;27.88;;;1.90;99.90;;;;;;5098722;28;20503;-79
2022/12/11 10:57:30;;;;;;;78.10;28.00;;;1.80;99.90;;;;;;5103162;28;20076;-86
2022/12/11 11:00:39;;;;;;;80.57;27.85;;;2.00;99.90;;;;;;5082783;28;20059;-79
2022/12/11 11:03:27;;;;;;;81.88;26.90;;;2.00;99.90;;;;;;5099804;28;20056;-79
2022/12/11 11:06:18;;;;;;;73.95;28.08;;;2.00;99.90;;;;;;5096576;28;20044;-78
2022/12/11 11:09:29;;;;;;;79.65;29.42;;;2.00;99.90;;;;;;5096656;28;20048;-80
2022/12/11 11:12:23;;;;;;;72.82;25.50;;;2.00;99.90;;;;;;5061673;28;20507;-82
2022/12/11 11:15:14;;;;;;;77.05;27.52;;;2.00;99.90;;;;;;5075914;28;20055;-81
2022/12/11 11:18:10;;;;;;;75.82;27.00;;;2.10;99.90;;;;;;5093038;28;20048;-78
2022/12/11 11:20:56;;;;;;;71.10;25.58;;;2.10;99.90;;;;;;5092517;28;20056;-79
2022/12/11 11:23:43;;;;;;;66.20;25.38;;;2.10;99.90;;;;;;5093834;28;20408;-81
2022/12/11 11:26:32;;;;;;;71.28;28.38;;;2.10;99.90;;;;;;5092699;28;20070;-78
2022/12/11 11:29:28;;;;;;;62.28;25.15;;;2.10;99.90;;;;;;5075303;28;20509;-87
2022/12/11 11:32:21;;;;;;;67.78;25.77;;;2.20;99.90;;;;;;5099383;28;20052;-85
2022/12/11 11:35:10;;;;;;;69.35;26.38;;;2.10;99.90;;;;;;5074448;28;20552;-81
2022/12/11 11:38:19;;;;;;;63.72;24.50;;;2.20;99.90;;;;;;5074709;28;20087;-83
2022/12/11 11:41:16;;;;;;;70.00;27.48;;;2.20;99.90;;;;;;5074505;28;20047;-79
2022/12/11 11:44:06;;;;;;;75.57;24.75;;;2.20;99.90;;;;;;5093235;28;20422;-84
2022/12/11 11:46:59;;;;;;;73.55;25.98;;;2.30;99.90;;;;;;5074344;28;20503;-80
2022/12/11 11:50:00;;;;;;;65.03;24.77;;;2.30;99.90;;;;;;5092830;28;20051;-81
2022/12/11 11:53:11;;;;;;;69.55;25.00;;;2.30;99.90;;;;;;5099295;28;20040;-79
2022/12/11 11:56:17;;;;;;;70.80;26.48;;;2.40;99.90;;;;;;5092868;28;20059;-81
2022/12/11 11:59:38;;;;;;;61.67;23.27;;;2.40;99.90;;;;;;5092280;28;20086;-83
2022/12/11 12:02:24;;;;;;;60.60;24.02;;;2.40;99.90;;;;;;5092567;28;20044;-79
2022/12/11 12:05:16;;;;;;;64.35;23.30;;;2.40;99.90;;;;;;5060727;28;20411;-83
2022/12/11 12:08:19;;;;;;;66.55;26.20;;;2.50;99.90;;;;;;5074117;28;20060;-79
2022/12/11 12:11:22;;;;;;;56.45;22.10;;;2.50;99.90;;;;;;5073773;28;20056;-79
2022/12/11 12:14:20;;;;;;;59.63;22.92;;;2.50;99.90;;;;;;5079592;28;20044;-87
2022/12/11 12:17:18;;;;;;;63.92;22.90;;;2.60;99.90;;;;;;5084585;28;20113;-81
2022/12/11 12:20:26;;;;;;;58.58;23.42;;;2.60;99.90;;;;;;5077435;28;20113;-83
2022/12/11 12:23:18;;;;;;;61.05;23.10;;;2.60;99.90;;;;;;5073731;28;20056;-84
2022/12/11 12:26:26;;;;;;;62.25;23.80;;;2.60;99.90;;;;;;5073891;28;20044;-80
2022/12/11 12:29:54;;;;;;;61.22;23.35;;;2.50;99.90;;;;;;5073735;28;20048;-77
2022/12/11 12:32:58;;;;;;;58.67;23.02;;;2.50;99.90;;;;;;5081080;28;20076;-84
2022/12/11 12:36:09;;;;;;;58.65;24.23;;;2.50;99.90;;;;;;5078833;28;20040;-81
2022/12/11 12:39:32;;;;;;;49.58;21.40;;;2.60;99.90;;;;;;5092333;28;20048;-83
2022/12/11 12:42:30;;;;;;;65.47;25.15;;;2.50;99.90;;;;;;5091672;28;20404;-80
2022/12/11 12:45:25;;;;;;;57.90;22.35;;;2.50;99.90;;;;;;5091952;28;20052;-84
2022/12/11 12:48:11;;;;;;;57.43;24.10;;;2.50;99.90;;;;;;5091824;28;20492;-78
2022/12/11 12:50:57;;;;;;;54.67;23.42;;;2.50;99.90;;;;;;5077302;28;20054;-87
2022/12/11 12:53:53;;;;;;;55.45;23.00;;;2.50;99.90;;;;;;5076241;28;20048;-84
2022/12/11 12:56:42;;;;;;;60.22;22.60;;;2.50;99.90;;;;;;5089736;28;20441;-79
2022/12/11 12:59:28;;;;;;;56.97;24.33;;;2.50;99.90;;;;;;5091175;28;20055;-82
2022/12/11 13:02:16;;;;;;;55.60;22.55;;;2.50;99.90;;;;;;5072748;28;20055;-80
2022/12/11 13:05:17;;;;;;;54.75;22.75;;;2.60;99.90;;;;;;5073128;28;20500;-84
2022/12/11 13:08:04;;;;;;;52.03;21.88;;;2.50;99.90;;;;;;5094066;28;20059;-76
2022/12/11 13:11:06;;;;;;;61.03;22.80;;;2.50;99.90;;;;;;5096538;28;20566;-88
2022/12/11 13:14:10;;;;;;;54.55;23.90;;;2.50;99.90;;;;;;5090277;28;20044;-78
2022/12/11 13:17:24;;;;;;;56.75;24.23;;;2.50;99.90;;;;;;5072631;28;20059;-83
2022/12/11 13:20:16;;;;;;;51.47;22.48;;;2.40;99.90;;;;;;5089668;28;20496;-80
2022/12/11 13:23:06;;;;;;;58.55;23.70;;;2.40;99.90;;;;;;5091951;28;20127;-77
2022/12/11 13:25:55;;;;;;;53.13;22.42;;;2.40;99.90;;;;;;5075786;28;20102;-79
2022/12/11 13:28:41;;;;;;;53.63;22.38;;;2.40;99.90;;;;;;5075687;28;20086;-76
2022/12/11 13:31:42;;;;;;;54.58;21.60;;;2.40;99.90;;;;;;5072925;28;20059;-80
2022/12/11 13:34:33;;;;;;;58.50;22.08;;;2.40;99.90;;;;;;5072196;28;20052;-78
2022/12/11 13:37:23;;;;;;;52.92;22.38;;;2.30;99.90;;;;;;5072375;28;20052;-79
2022/12/11 13:40:16;;;;;;;51.88;21.23;;;2.30;99.90;;;;;;5072200;28;20538;-82
2022/12/11 13:43:14;;;;;;;54.22;23.30;;;2.30;99.90;;;;;;5072852;28;20058;-89
2022/12/11 13:46:08;;;;;;;57.50;23.60;;;2.30;99.90;;;;;;5073881;28;20044;-80
2022/12/11 13:49:00;;;;;;;55.50;21.33;;;2.30;99.90;;;;;;5099085;28;20506;-85
2022/12/11 13:51:55;;;;;;;52.65;21.55;;;2.30;99.90;;;;;;5090821;28;20450;-83
2022/12/11 13:54:51;;;;;;;60.80;22.45;;;2.30;99.90;;;;;;5071656;28;20048;-81
2022/12/11 13:57:44;;;;;;;52.90;22.23;;;2.30;99.90;;;;;;5072706;28;20504;-87
2022/12/11 14:00:31;;;;;;;53.97;24.13;;;2.30;99.90;;;;;;5091103;28;20144;-85
2022/12/11 14:03:17;;;;;;;56.20;23.35;;;2.30;99.90;;;;;;5072119;28;20060;-79
2022/12/11 14:06:07;;;;;;;55.03;24.10;;;2.30;99.90;;;;;;5093426;28;20048;-86
2022/12/11 14:08:58;;;;;;;52.55;22.30;;;2.30;99.90;;;;;;5078210;28;20055;-79
2022/12/11 14:11:45;;;;;;;54.15;21.63;;;2.30;99.90;;;;;;5072223;28;20048;-79
2022/12/11 14:14:43;;;;;;;52.08;21.05;;;2.30;99.90;;;;;;5090663;28;20043;-78
2022/12/11 14:17:33;;;;;;;47.20;21.35;;;2.20;99.90;;;;;;5089876;28;20141;-88
2022/12/11 14:20:22;;;;;;;54.65;21.92;;;2.20;99.90;;;;;;5091365;28;20051;-82
2022/12/11 14:23:17;;;;;;;51.60;22.85;;;2.20;99.90;;;;;;5090375;28;20044;-79
2022/12/11 14:26:19;;;;;;;55.08;21.92;;;2.20;99.90;;;;;;5093849;28;20511;-79
2022/12/11 14:29:05;;;;;;;48.65;22.92;;;2.20;99.90;;;;;;5095722;28;20054;-86
2022/12/11 14:31:52;;;;;;;54.25;21.40;;;2.20;99.90;;;;;;5079426;28;20113;-85
2022/12/11 14:34:44;;;;;;;50.55;22.45;;;2.10;99.90;;;;;;5094016;28;20464;-89
2022/12/11 14:37:31;;;;;;;53.67;21.80;;;2.10;99.90;;;;;;5063178;28;20415;-88